sensor_id;sensor_type;location;lat;lon;timestamp;P1;durP1;ratioP1;P2;durP2;ratioP2
21769;SDS011;11046;49.558;8.674;2023-11-21T00:02:26;7.07;;;3.40;;
21769;SDS011;11046;49.558;8.674;2023-11-21T00:05:33;10.17;;;2.80;;
21769;SDS011;11046;49.558;8.674;2023-11-21T00:08:35;8.17;;;2.40;;
21769;SDS011;11046;49.558;8.674;2023-11-21T00:11:37;9.53;;;2.70;;
21769;SDS011;11046;49.558;8.674;2023-11-21T00:14:38;5.93;;;2.67;;
21769;SDS011;11046;49.558;8.674;2023-11-21T00:17:38;6.03;;;2.73;;
21769;SDS011;11046;49.558;8.674;2023-11-21T00:20:42;10.17;;;3.10;;
21769;SDS011;11046;49.558;8.674;2023-11-21T00:23:45;10.17;;;3.00;;
21769;SDS011;11046;49.558;8.674;2023-11-21T00:26:46;9.80;;;3.37;;
21769;SDS011;11046;49.558;8.674;2023-11-21T00:29:49;8.93;;;2.97;;
21769;SDS011;11046;49.558;8.674;2023-11-21T00:32:49;9.90;;;3.20;;
21769;SDS011;11046;49.558;8.674;2023-11-21T00:35:50;10.07;;;3.23;;
21769;SDS011;11046;49.558;8.674;2023-11-21T00:38:51;5.70;;;2.90;;
21769;SDS011;11046;49.558;8.674;2023-11-21T00:42:01;12.63;;;2.80;;
21769;SDS011;11046;49.558;8.674;2023-11-21T00:45:02;13.87;;;3.23;;
21769;SDS011;11046;49.558;8.674;2023-11-21T00:48:03;7.60;;;3.23;;
21769;SDS011;11046;49.558;8.674;2023-11-21T00:51:05;14.70;;;3.50;;
21769;SDS011;11046;49.558;8.674;2023-11-21T00:54:08;9.37;;;3.27;;
21769;SDS011;11046;49.558;8.674;2023-11-21T00:57:09;8.13;;;3.00;;
21769;SDS011;11046;49.558;8.674;2023-11-21T01:00:12;7.37;;;3.20;;
21769;SDS011;11046;49.558;8.674;2023-11-21T01:03:17;12.83;;;3.30;;
21769;SDS011;11046;49.558;8.674;2023-11-21T01:06:20;11.70;;;3.93;;
21769;SDS011;11046;49.558;8.674;2023-11-21T01:09:22;9.90;;;2.80;;
21769;SDS011;11046;49.558;8.674;2023-11-21T01:12:23;8.50;;;3.03;;
21769;SDS011;11046;49.558;8.674;2023-11-21T01:15:27;12.50;;;3.33;;
21769;SDS011;11046;49.558;8.674;2023-11-21T01:18:28;11.63;;;2.83;;
21769;SDS011;11046;49.558;8.674;2023-11-21T01:21:32;10.20;;;3.20;;
21769;SDS011;11046;49.558;8.674;2023-11-21T01:24:43;7.90;;;3.20;;
21769;SDS011;11046;49.558;8.674;2023-11-21T01:27:49;15.40;;;2.90;;
21769;SDS011;11046;49.558;8.674;2023-11-21T01:30:52;10.13;;;3.10;;
21769;SDS011;11046;49.558;8.674;2023-11-21T01:33:56;8.47;;;3.33;;
21769;SDS011;11046;49.558;8.674;2023-11-21T01:37:00;12.53;;;2.90;;
21769;SDS011;11046;49.558;8.674;2023-11-21T01:40:01;6.50;;;2.87;;
21769;SDS011;11046;49.558;8.674;2023-11-21T01:43:05;7.67;;;3.43;;
21769;SDS011;11046;49.558;8.674;2023-11-21T01:46:09;8.60;;;2.73;;
21769;SDS011;11046;49.558;8.674;2023-11-21T01:49:10;5.80;;;3.00;;
21769;SDS011;11046;49.558;8.674;2023-11-21T01:52:13;12.03;;;3.10;;
21769;SDS011;11046;49.558;8.674;2023-11-21T01:55:15;9.23;;;3.20;;
21769;SDS011;11046;49.558;8.674;2023-11-21T01:58:20;6.07;;;2.83;;
21769;SDS011;11046;49.558;8.674;2023-11-21T02:01:24;10.20;;;3.20;;
21769;SDS011;11046;49.558;8.674;2023-11-21T02:04:27;8.43;;;3.13;;
21769;SDS011;11046;49.558;8.674;2023-11-21T02:07:27;9.73;;;3.70;;
21769;SDS011;11046;49.558;8.674;2023-11-21T02:10:28;10.37;;;4.20;;
21769;SDS011;11046;49.558;8.674;2023-11-21T02:13:32;8.23;;;3.40;;
21769;SDS011;11046;49.558;8.674;2023-11-21T02:16:36;6.20;;;3.17;;
21769;SDS011;11046;49.558;8.674;2023-11-21T02:19:37;9.17;;;3.90;;
21769;SDS011;11046;49.558;8.674;2023-11-21T02:22:38;6.53;;;3.33;;
21769;SDS011;11046;49.558;8.674;2023-11-21T02:25:40;8.87;;;3.47;;
21769;SDS011;11046;49.558;8.674;2023-11-21T02:28:42;9.73;;;3.03;;
21769;SDS011;11046;49.558;8.674;2023-11-21T02:31:43;10.67;;;3.03;;
21769;SDS011;11046;49.558;8.674;2023-11-21T02:34:53;5.97;;;2.90;;
21769;SDS011;11046;49.558;8.674;2023-11-21T02:38:00;10.97;;;2.93;;
21769;SDS011;11046;49.558;8.674;2023-11-21T02:41:01;8.87;;;3.30;;
21769;SDS011;11046;49.558;8.674;2023-11-21T02:44:02;8.10;;;3.13;;
21769;SDS011;11046;49.558;8.674;2023-11-21T02:47:04;7.37;;;3.00;;
21769;SDS011;11046;49.558;8.674;2023-11-21T02:50:05;7.33;;;3.37;;
21769;SDS011;11046;49.558;8.674;2023-11-21T02:53:08;9.60;;;3.10;;
21769;SDS011;11046;49.558;8.674;2023-11-21T02:56:10;9.43;;;3.43;;
21769;SDS011;11046;49.558;8.674;2023-11-21T02:59:11;7.53;;;3.20;;
21769;SDS011;11046;49.558;8.674;2023-11-21T03:02:12;11.23;;;3.47;;
21769;SDS011;11046;49.558;8.674;2023-11-21T03:05:13;9.10;;;3.90;;
21769;SDS011;11046;49.558;8.674;2023-11-21T03:08:14;7.00;;;3.00;;
21769;SDS011;11046;49.558;8.674;2023-11-21T03:11:16;9.87;;;3.20;;
21769;SDS011;11046;49.558;8.674;2023-11-21T03:14:16;12.93;;;3.33;;
21769;SDS011;11046;49.558;8.674;2023-11-21T03:17:17;8.67;;;2.90;;
21769;SDS011;11046;49.558;8.674;2023-11-21T03:20:18;10.80;;;3.00;;
21769;SDS011;11046;49.558;8.674;2023-11-21T03:23:18;6.97;;;3.50;;
21769;SDS011;11046;49.558;8.674;2023-11-21T03:26:19;9.07;;;3.20;;
21769;SDS011;11046;49.558;8.674;2023-11-21T03:29:23;13.10;;;3.37;;
21769;SDS011;11046;49.558;8.674;2023-11-21T03:32:24;10.30;;;3.77;;
21769;SDS011;11046;49.558;8.674;2023-11-21T03:35:25;9.93;;;3.50;;
21769;SDS011;11046;49.558;8.674;2023-11-21T03:38:26;6.23;;;3.30;;
21769;SDS011;11046;49.558;8.674;2023-11-21T03:41:27;9.23;;;3.47;;
21769;SDS011;11046;49.558;8.674;2023-11-21T03:44:28;7.83;;;3.20;;
21769;SDS011;11046;49.558;8.674;2023-11-21T03:47:29;8.97;;;3.50;;
21769;SDS011;11046;49.558;8.674;2023-11-21T03:50:30;11.70;;;3.87;;
21769;SDS011;11046;49.558;8.674;2023-11-21T03:53:31;7.50;;;3.30;;
21769;SDS011;11046;49.558;8.674;2023-11-21T03:56:32;11.17;;;3.17;;
21769;SDS011;11046;49.558;8.674;2023-11-21T03:59:34;7.40;;;3.57;;
21769;SDS011;11046;49.558;8.674;2023-11-21T04:02:35;11.73;;;4.23;;
21769;SDS011;11046;49.558;8.674;2023-11-21T04:05:35;10.07;;;4.47;;
21769;SDS011;11046;49.558;8.674;2023-11-21T04:08:39;9.87;;;3.20;;
21769;SDS011;11046;49.558;8.674;2023-11-21T04:11:39;6.80;;;3.33;;
21769;SDS011;11046;49.558;8.674;2023-11-21T04:14:42;7.87;;;3.47;;
21769;SDS011;11046;49.558;8.674;2023-11-21T04:17:45;8.90;;;2.90;;
21769;SDS011;11046;49.558;8.674;2023-11-21T04:20:48;10.87;;;3.73;;
21769;SDS011;11046;49.558;8.674;2023-11-21T04:23:49;5.83;;;3.53;;
21769;SDS011;11046;49.558;8.674;2023-11-21T04:26:49;10.43;;;3.43;;
21769;SDS011;11046;49.558;8.674;2023-11-21T04:29:50;6.33;;;2.93;;
21769;SDS011;11046;49.558;8.674;2023-11-21T04:32:54;7.67;;;3.60;;
21769;SDS011;11046;49.558;8.674;2023-11-21T04:35:57;8.27;;;3.30;;
21769;SDS011;11046;49.558;8.674;2023-11-21T04:38:59;5.60;;;2.93;;
21769;SDS011;11046;49.558;8.674;2023-11-21T04:42:03;9.90;;;3.47;;
21769;SDS011;11046;49.558;8.674;2023-11-21T04:45:07;5.83;;;3.70;;
21769;SDS011;11046;49.558;8.674;2023-11-21T04:48:09;6.93;;;3.77;;
21769;SDS011;11046;49.558;8.674;2023-11-21T04:51:12;7.53;;;4.03;;
21769;SDS011;11046;49.558;8.674;2023-11-21T04:54:13;6.17;;;3.77;;
21769;SDS011;11046;49.558;8.674;2023-11-21T04:57:14;9.57;;;4.20;;
21769;SDS011;11046;49.558;8.674;2023-11-21T05:00:14;8.73;;;4.40;;
21769;SDS011;11046;49.558;8.674;2023-11-21T05:03:17;9.30;;;4.30;;
21769;SDS011;11046;49.558;8.674;2023-11-21T05:06:17;9.23;;;4.33;;
21769;SDS011;11046;49.558;8.674;2023-11-21T05:09:20;9.07;;;4.60;;
21769;SDS011;11046;49.558;8.674;2023-11-21T05:12:24;7.93;;;4.17;;
21769;SDS011;11046;49.558;8.674;2023-11-21T05:15:24;8.60;;;4.50;;
21769;SDS011;11046;49.558;8.674;2023-11-21T05:18:26;8.23;;;4.70;;
21769;SDS011;11046;49.558;8.674;2023-11-21T05:21:34;9.17;;;5.03;;
21769;SDS011;11046;49.558;8.674;2023-11-21T05:24:36;10.27;;;5.27;;
21769;SDS011;11046;49.558;8.674;2023-11-21T05:27:36;11.53;;;5.73;;
21769;SDS011;11046;49.558;8.674;2023-11-21T05:30:37;12.80;;;6.00;;
21769;SDS011;11046;49.558;8.674;2023-11-21T05:33:41;13.60;;;6.10;;
21769;SDS011;11046;49.558;8.674;2023-11-21T05:36:45;9.77;;;5.43;;
21769;SDS011;11046;49.558;8.674;2023-11-21T05:39:48;11.93;;;5.80;;
21769;SDS011;11046;49.558;8.674;2023-11-21T05:42:49;12.90;;;5.97;;
21769;SDS011;11046;49.558;8.674;2023-11-21T05:45:51;14.37;;;5.57;;
21769;SDS011;11046;49.558;8.674;2023-11-21T05:48:52;13.93;;;6.33;;
21769;SDS011;11046;49.558;8.674;2023-11-21T05:51:53;11.93;;;6.20;;
21769;SDS011;11046;49.558;8.674;2023-11-21T05:54:57;10.30;;;5.40;;
21769;SDS011;11046;49.558;8.674;2023-11-21T05:57:58;11.83;;;6.40;;
21769;SDS011;11046;49.558;8.674;2023-11-21T06:01:01;15.00;;;6.60;;
21769;SDS011;11046;49.558;8.674;2023-11-21T06:04:13;13.03;;;7.50;;
21769;SDS011;11046;49.558;8.674;2023-11-21T06:07:14;11.33;;;6.50;;
21769;SDS011;11046;49.558;8.674;2023-11-21T06:10:15;11.27;;;6.47;;
21769;SDS011;11046;49.558;8.674;2023-11-21T06:13:17;17.20;;;7.57;;
21769;SDS011;11046;49.558;8.674;2023-11-21T06:16:24;16.23;;;7.87;;
21769;SDS011;11046;49.558;8.674;2023-11-21T06:19:25;12.33;;;6.87;;
21769;SDS011;11046;49.558;8.674;2023-11-21T06:22:26;17.40;;;8.50;;
21769;SDS011;11046;49.558;8.674;2023-11-21T06:25:26;19.93;;;8.13;;
21769;SDS011;11046;49.558;8.674;2023-11-21T06:28:30;17.93;;;7.50;;
21769;SDS011;11046;49.558;8.674;2023-11-21T06:31:33;17.70;;;7.67;;
21769;SDS011;11046;49.558;8.674;2023-11-21T06:34:34;14.63;;;6.90;;
21769;SDS011;11046;49.558;8.674;2023-11-21T06:37:35;14.57;;;8.00;;
21769;SDS011;11046;49.558;8.674;2023-11-21T06:40:38;14.97;;;7.50;;
21769;SDS011;11046;49.558;8.674;2023-11-21T06:43:41;18.03;;;8.63;;
21769;SDS011;11046;49.558;8.674;2023-11-21T06:46:42;16.90;;;8.37;;
21769;SDS011;11046;49.558;8.674;2023-11-21T06:49:42;15.63;;;8.47;;
21769;SDS011;11046;49.558;8.674;2023-11-21T06:52:48;14.10;;;7.83;;
21769;SDS011;11046;49.558;8.674;2023-11-21T06:55:49;17.77;;;8.60;;
21769;SDS011;11046;49.558;8.674;2023-11-21T06:58:50;18.07;;;9.07;;
21769;SDS011;11046;49.558;8.674;2023-11-21T07:01:53;17.13;;;9.13;;
21769;SDS011;11046;49.558;8.674;2023-11-21T07:04:54;21.33;;;9.37;;
21769;SDS011;11046;49.558;8.674;2023-11-21T07:07:55;20.77;;;9.30;;
21769;SDS011;11046;49.558;8.674;2023-11-21T07:10:56;23.27;;;9.77;;
21769;SDS011;11046;49.558;8.674;2023-11-21T07:14:00;24.97;;;8.87;;
21769;SDS011;11046;49.558;8.674;2023-11-21T07:17:07;17.20;;;8.70;;
21769;SDS011;11046;49.558;8.674;2023-11-21T07:20:08;21.90;;;9.20;;
21769;SDS011;11046;49.558;8.674;2023-11-21T07:23:11;22.17;;;9.83;;
21769;SDS011;11046;49.558;8.674;2023-11-21T07:26:11;16.63;;;8.80;;
21769;SDS011;11046;49.558;8.674;2023-11-21T07:29:12;16.60;;;8.70;;
21769;SDS011;11046;49.558;8.674;2023-11-21T07:32:13;14.90;;;7.77;;
21769;SDS011;11046;49.558;8.674;2023-11-21T07:35:15;15.57;;;8.07;;
21769;SDS011;11046;49.558;8.674;2023-11-21T07:38:16;16.87;;;8.27;;
21769;SDS011;11046;49.558;8.674;2023-11-21T07:41:17;19.30;;;8.93;;
21769;SDS011;11046;49.558;8.674;2023-11-21T07:44:18;14.23;;;8.23;;
21769;SDS011;11046;49.558;8.674;2023-11-21T07:47:20;17.03;;;8.47;;
21769;SDS011;11046;49.558;8.674;2023-11-21T07:50:21;17.93;;;8.53;;
21769;SDS011;11046;49.558;8.674;2023-11-21T07:53:23;17.33;;;8.97;;
21769;SDS011;11046;49.558;8.674;2023-11-21T07:56:28;16.90;;;7.70;;
21769;SDS011;11046;49.558;8.674;2023-11-21T07:59:29;16.00;;;8.17;;
21769;SDS011;11046;49.558;8.674;2023-11-21T08:02:36;13.07;;;7.47;;
21769;SDS011;11046;49.558;8.674;2023-11-21T08:05:45;11.87;;;6.93;;
21769;SDS011;11046;49.558;8.674;2023-11-21T08:08:45;13.23;;;7.07;;
21769;SDS011;11046;49.558;8.674;2023-11-21T08:11:46;7.77;;;4.03;;
21769;SDS011;11046;49.558;8.674;2023-11-21T08:14:49;3.63;;;2.80;;
21769;SDS011;11046;49.558;8.674;2023-11-21T08:17:52;4.33;;;2.80;;
21769;SDS011;11046;49.558;8.674;2023-11-21T08:20:57;4.83;;;2.70;;
21769;SDS011;11046;49.558;8.674;2023-11-21T08:24:00;4.87;;;2.30;;
21769;SDS011;11046;49.558;8.674;2023-11-21T08:27:04;3.27;;;2.40;;
21769;SDS011;11046;49.558;8.674;2023-11-21T08:30:10;3.53;;;2.20;;
21769;SDS011;11046;49.558;8.674;2023-11-21T08:33:14;4.43;;;2.10;;
21769;SDS011;11046;49.558;8.674;2023-11-21T08:36:17;3.53;;;2.40;;
21769;SDS011;11046;49.558;8.674;2023-11-21T08:39:17;3.40;;;2.00;;
21769;SDS011;11046;49.558;8.674;2023-11-21T08:42:19;2.90;;;2.00;;
21769;SDS011;11046;49.558;8.674;2023-11-21T08:45:23;1.80;;;1.50;;
21769;SDS011;11046;49.558;8.674;2023-11-21T08:48:25;4.43;;;1.60;;
21769;SDS011;11046;49.558;8.674;2023-11-21T08:51:28;2.97;;;2.10;;
21769;SDS011;11046;49.558;8.674;2023-11-21T08:54:29;3.07;;;2.20;;
21769;SDS011;11046;49.558;8.674;2023-11-21T08:57:31;6.80;;;3.20;;
21769;SDS011;11046;49.558;8.674;2023-11-21T09:00:39;5.17;;;3.40;;
21769;SDS011;11046;49.558;8.674;2023-11-21T09:03:40;5.33;;;3.30;;
21769;SDS011;11046;49.558;8.674;2023-11-21T09:06:41;6.00;;;4.10;;
21769;SDS011;11046;49.558;8.674;2023-11-21T09:09:45;4.40;;;3.03;;
21769;SDS011;11046;49.558;8.674;2023-11-21T09:12:49;4.70;;;2.80;;
21769;SDS011;11046;49.558;8.674;2023-11-21T09:15:55;3.40;;;2.20;;
21769;SDS011;11046;49.558;8.674;2023-11-21T09:18:55;3.53;;;2.20;;
21769;SDS011;11046;49.558;8.674;2023-11-21T09:21:56;3.97;;;2.50;;
21769;SDS011;11046;49.558;8.674;2023-11-21T09:24:57;4.57;;;2.30;;
21769;SDS011;11046;49.558;8.674;2023-11-21T09:28:03;5.10;;;2.67;;
21769;SDS011;11046;49.558;8.674;2023-11-21T09:31:08;4.70;;;2.37;;
21769;SDS011;11046;49.558;8.674;2023-11-21T09:34:10;4.57;;;3.00;;
21769;SDS011;11046;49.558;8.674;2023-11-21T09:37:11;4.53;;;2.67;;
21769;SDS011;11046;49.558;8.674;2023-11-21T09:40:12;4.40;;;2.80;;
21769;SDS011;11046;49.558;8.674;2023-11-21T09:43:17;10.50;;;2.93;;
21769;SDS011;11046;49.558;8.674;2023-11-21T09:46:18;5.43;;;2.97;;
21769;SDS011;11046;49.558;8.674;2023-11-21T09:49:22;7.67;;;3.20;;
21769;SDS011;11046;49.558;8.674;2023-11-21T09:52:28;4.90;;;3.60;;
21769;SDS011;11046;49.558;8.674;2023-11-21T09:55:29;4.47;;;2.80;;
21769;SDS011;11046;49.558;8.674;2023-11-21T09:58:35;7.50;;;3.67;;
21769;SDS011;11046;49.558;8.674;2023-11-21T10:01:36;5.90;;;3.70;;
21769;SDS011;11046;49.558;8.674;2023-11-21T10:04:42;5.63;;;3.50;;
21769;SDS011;11046;49.558;8.674;2023-11-21T10:07:43;7.07;;;4.37;;
21769;SDS011;11046;49.558;8.674;2023-11-21T10:10:46;7.07;;;4.17;;
21769;SDS011;11046;49.558;8.674;2023-11-21T10:13:49;8.20;;;4.50;;
21769;SDS011;11046;49.558;8.674;2023-11-21T10:16:53;9.80;;;4.00;;
21769;SDS011;11046;49.558;8.674;2023-11-21T10:19:55;8.40;;;4.80;;
21769;SDS011;11046;49.558;8.674;2023-11-21T10:22:59;7.57;;;4.63;;
21769;SDS011;11046;49.558;8.674;2023-11-21T10:26:03;10.70;;;5.57;;
21769;SDS011;11046;49.558;8.674;2023-11-21T10:29:07;8.20;;;5.53;;
21769;SDS011;11046;49.558;8.674;2023-11-21T10:32:15;10.40;;;5.50;;
21769;SDS011;11046;49.558;8.674;2023-11-21T10:35:16;10.90;;;5.57;;
21769;SDS011;11046;49.558;8.674;2023-11-21T10:38:17;9.23;;;5.57;;
21769;SDS011;11046;49.558;8.674;2023-11-21T10:41:27;14.90;;;6.00;;
21769;SDS011;11046;49.558;8.674;2023-11-21T10:44:28;12.73;;;5.67;;
21769;SDS011;11046;49.558;8.674;2023-11-21T10:47:35;13.33;;;5.77;;
21769;SDS011;11046;49.558;8.674;2023-11-21T10:50:37;9.30;;;5.97;;
21769;SDS011;11046;49.558;8.674;2023-11-21T10:53:39;10.20;;;5.80;;
21769;SDS011;11046;49.558;8.674;2023-11-21T10:56:43;10.70;;;5.43;;
21769;SDS011;11046;49.558;8.674;2023-11-21T10:59:46;9.53;;;5.83;;
21769;SDS011;11046;49.558;8.674;2023-11-21T11:02:52;12.53;;;6.03;;
21769;SDS011;11046;49.558;8.674;2023-11-21T11:05:56;10.73;;;6.30;;
21769;SDS011;11046;49.558;8.674;2023-11-21T11:09:00;11.97;;;6.77;;
21769;SDS011;11046;49.558;8.674;2023-11-21T11:12:02;10.70;;;6.50;;
21769;SDS011;11046;49.558;8.674;2023-11-21T11:15:10;10.17;;;5.97;;
21769;SDS011;11046;49.558;8.674;2023-11-21T11:18:11;10.70;;;6.77;;
21769;SDS011;11046;49.558;8.674;2023-11-21T11:21:16;12.77;;;7.13;;
21769;SDS011;11046;49.558;8.674;2023-11-21T11:27:48;9.97;;;5.80;;
21769;SDS011;11046;49.558;8.674;2023-11-21T11:34:42;7.87;;;4.90;;
21769;SDS011;11046;49.558;8.674;2023-11-21T11:37:49;8.48;;;4.85;;
21769;SDS011;11046;49.558;8.674;2023-11-21T11:40:52;7.53;;;5.20;;
21769;SDS011;11046;49.558;8.674;2023-11-21T11:43:54;9.73;;;4.40;;
21769;SDS011;11046;49.558;8.674;2023-11-21T11:46:56;6.60;;;4.13;;
21769;SDS011;11046;49.558;8.674;2023-11-21T11:53:14;9.30;;;4.37;;
21769;SDS011;11046;49.558;8.674;2023-11-21T11:59:26;6.63;;;4.70;;
21769;SDS011;11046;49.558;8.674;2023-11-21T12:02:27;9.13;;;4.63;;
21769;SDS011;11046;49.558;8.674;2023-11-21T12:05:29;4.67;;;3.07;;
21769;SDS011;11046;49.558;8.674;2023-11-21T12:08:41;7.27;;;3.77;;
21769;SDS011;11046;49.558;8.674;2023-11-21T12:11:45;5.13;;;3.50;;
21769;SDS011;11046;49.558;8.674;2023-11-21T12:14:46;10.27;;;3.13;;
21769;SDS011;11046;49.558;8.674;2023-11-21T12:17:48;4.10;;;2.40;;
21769;SDS011;11046;49.558;8.674;2023-11-21T12:20:50;4.53;;;2.40;;
21769;SDS011;11046;49.558;8.674;2023-11-21T12:23:51;3.67;;;2.20;;
21769;SDS011;11046;49.558;8.674;2023-11-21T12:26:51;4.43;;;2.30;;
21769;SDS011;11046;49.558;8.674;2023-11-21T12:29:53;3.23;;;2.00;;
21769;SDS011;11046;49.558;8.674;2023-11-21T12:32:56;2.90;;;1.80;;
21769;SDS011;11046;49.558;8.674;2023-11-21T12:35:57;2.63;;;1.90;;
21769;SDS011;11046;49.558;8.674;2023-11-21T12:38:58;2.90;;;1.60;;
21769;SDS011;11046;49.558;8.674;2023-11-21T12:41:59;3.50;;;1.87;;
21769;SDS011;11046;49.558;8.674;2023-11-21T12:48:31;5.70;;;2.00;;
21769;SDS011;11046;49.558;8.674;2023-11-21T12:51:32;5.47;;;1.90;;
21769;SDS011;11046;49.558;8.674;2023-11-21T12:54:33;3.53;;;2.00;;
21769;SDS011;11046;49.558;8.674;2023-11-21T12:57:35;4.60;;;2.03;;
21769;SDS011;11046;49.558;8.674;2023-11-21T13:00:47;3.63;;;1.90;;
21769;SDS011;11046;49.558;8.674;2023-11-21T13:03:50;5.45;;;1.80;;
21769;SDS011;11046;49.558;8.674;2023-11-21T13:06:51;4.28;;;2.10;;
21769;SDS011;11046;49.558;8.674;2023-11-21T13:09:52;7.30;;;1.70;;
21769;SDS011;11046;49.558;8.674;2023-11-21T13:12:53;6.40;;;1.40;;
21769;SDS011;11046;49.558;8.674;2023-11-21T13:15:55;3.47;;;1.50;;
21769;SDS011;11046;49.558;8.674;2023-11-21T13:19:00;3.37;;;1.47;;
21769;SDS011;11046;49.558;8.674;2023-11-21T13:22:01;3.67;;;2.00;;
21769;SDS011;11046;49.558;8.674;2023-11-21T13:25:04;3.53;;;2.00;;
21769;SDS011;11046;49.558;8.674;2023-11-21T13:28:07;6.40;;;2.03;;
21769;SDS011;11046;49.558;8.674;2023-11-21T13:31:09;3.30;;;1.70;;
21769;SDS011;11046;49.558;8.674;2023-11-21T13:34:20;4.53;;;1.90;;
21769;SDS011;11046;49.558;8.674;2023-11-21T13:37:22;2.80;;;1.60;;
21769;SDS011;11046;49.558;8.674;2023-11-21T13:40:25;4.07;;;1.60;;
21769;SDS011;11046;49.558;8.674;2023-11-21T13:43:26;5.27;;;1.20;;
21769;SDS011;11046;49.558;8.674;2023-11-21T13:46:29;4.07;;;1.17;;
21769;SDS011;11046;49.558;8.674;2023-11-21T13:49:35;2.20;;;1.23;;
21769;SDS011;11046;49.558;8.674;2023-11-21T13:52:40;2.83;;;1.20;;
21769;SDS011;11046;49.558;8.674;2023-11-21T13:55:41;2.40;;;1.37;;
21769;SDS011;11046;49.558;8.674;2023-11-21T13:58:42;2.90;;;1.53;;
21769;SDS011;11046;49.558;8.674;2023-11-21T14:01:51;3.27;;;1.37;;
21769;SDS011;11046;49.558;8.674;2023-11-21T14:04:56;6.45;;;1.88;;
21769;SDS011;11046;49.558;8.674;2023-11-21T14:07:59;2.85;;;1.63;;
21769;SDS011;11046;49.558;8.674;2023-11-21T14:11:04;9.47;;;2.10;;
21769;SDS011;11046;49.558;8.674;2023-11-21T14:14:06;6.30;;;2.27;;
21769;SDS011;11046;49.558;8.674;2023-11-21T14:17:07;12.17;;;3.50;;
21769;SDS011;11046;49.558;8.674;2023-11-21T14:20:09;5.70;;;2.47;;
21769;SDS011;11046;49.558;8.674;2023-11-21T14:23:15;9.57;;;2.50;;
21769;SDS011;11046;49.558;8.674;2023-11-21T14:26:16;4.80;;;2.90;;
21769;SDS011;11046;49.558;8.674;2023-11-21T14:29:18;8.47;;;2.57;;
21769;SDS011;11046;49.558;8.674;2023-11-21T14:32:23;6.47;;;2.20;;
21769;SDS011;11046;49.558;8.674;2023-11-21T14:35:25;6.37;;;2.47;;
21769;SDS011;11046;49.558;8.674;2023-11-21T14:38:26;4.67;;;2.33;;
21769;SDS011;11046;49.558;8.674;2023-11-21T14:41:28;4.07;;;2.53;;
21769;SDS011;11046;49.558;8.674;2023-11-21T14:44:29;6.60;;;2.77;;
21769;SDS011;11046;49.558;8.674;2023-11-21T14:47:35;7.50;;;2.90;;
21769;SDS011;11046;49.558;8.674;2023-11-21T14:50:38;9.80;;;3.30;;
21769;SDS011;11046;49.558;8.674;2023-11-21T14:53:39;7.83;;;3.40;;
21769;SDS011;11046;49.558;8.674;2023-11-21T14:56:42;7.70;;;3.00;;
21769;SDS011;11046;49.558;8.674;2023-11-21T14:59:47;10.07;;;2.80;;
21769;SDS011;11046;49.558;8.674;2023-11-21T15:02:57;9.73;;;3.00;;
21769;SDS011;11046;49.558;8.674;2023-11-21T15:05:58;8.33;;;3.00;;
21769;SDS011;11046;49.558;8.674;2023-11-21T15:09:17;9.27;;;3.20;;
21769;SDS011;11046;49.558;8.674;2023-11-21T15:12:17;10.37;;;3.13;;
21769;SDS011;11046;49.558;8.674;2023-11-21T15:15:20;9.27;;;3.27;;
21769;SDS011;11046;49.558;8.674;2023-11-21T15:18:21;7.20;;;3.20;;
21769;SDS011;11046;49.558;8.674;2023-11-21T15:21:22;5.33;;;2.77;;
21769;SDS011;11046;49.558;8.674;2023-11-21T15:24:24;10.10;;;3.30;;
21769;SDS011;11046;49.558;8.674;2023-11-21T15:27:25;6.93;;;3.03;;
21769;SDS011;11046;49.558;8.674;2023-11-21T15:30:27;10.47;;;2.90;;
21769;SDS011;11046;49.558;8.674;2023-11-21T15:33:31;14.97;;;3.40;;
21769;SDS011;11046;49.558;8.674;2023-11-21T15:36:32;6.33;;;3.00;;
21769;SDS011;11046;49.558;8.674;2023-11-21T15:39:32;9.43;;;2.83;;
21769;SDS011;11046;49.558;8.674;2023-11-21T15:42:33;7.57;;;2.90;;
21769;SDS011;11046;49.558;8.674;2023-11-21T15:45:34;9.90;;;3.40;;
21769;SDS011;11046;49.558;8.674;2023-11-21T15:48:35;10.20;;;3.20;;
21769;SDS011;11046;49.558;8.674;2023-11-21T15:51:36;10.97;;;3.67;;
21769;SDS011;11046;49.558;8.674;2023-11-21T15:54:37;8.77;;;3.40;;
21769;SDS011;11046;49.558;8.674;2023-11-21T15:57:38;9.40;;;3.50;;
21769;SDS011;11046;49.558;8.674;2023-11-21T16:00:39;11.63;;;3.67;;
21769;SDS011;11046;49.558;8.674;2023-11-21T16:03:41;16.03;;;4.90;;
21769;SDS011;11046;49.558;8.674;2023-11-21T16:06:46;16.00;;;5.10;;
21769;SDS011;11046;49.558;8.674;2023-11-21T16:09:47;14.40;;;5.47;;
21769;SDS011;11046;49.558;8.674;2023-11-21T16:12:49;13.90;;;5.90;;
21769;SDS011;11046;49.558;8.674;2023-11-21T16:15:50;18.77;;;4.97;;
21769;SDS011;11046;49.558;8.674;2023-11-21T16:18:51;11.67;;;4.70;;
21769;SDS011;11046;49.558;8.674;2023-11-21T16:21:51;12.33;;;4.40;;
21769;SDS011;11046;49.558;8.674;2023-11-21T16:24:53;10.70;;;4.07;;
21769;SDS011;11046;49.558;8.674;2023-11-21T16:27:53;10.53;;;4.70;;
21769;SDS011;11046;49.558;8.674;2023-11-21T16:30:56;9.10;;;4.60;;
21769;SDS011;11046;49.558;8.674;2023-11-21T16:33:57;9.80;;;4.80;;
21769;SDS011;11046;49.558;8.674;2023-11-21T16:36:57;11.83;;;4.57;;
21769;SDS011;11046;49.558;8.674;2023-11-21T16:39:58;10.73;;;4.60;;
21769;SDS011;11046;49.558;8.674;2023-11-21T16:42:59;14.07;;;5.40;;
21769;SDS011;11046;49.558;8.674;2023-11-21T16:46:00;13.17;;;5.63;;
21769;SDS011;11046;49.558;8.674;2023-11-21T16:49:00;15.73;;;5.97;;
21769;SDS011;11046;49.558;8.674;2023-11-21T16:52:01;11.93;;;6.33;;
21769;SDS011;11046;49.558;8.674;2023-11-21T16:55:03;16.40;;;5.57;;
21769;SDS011;11046;49.558;8.674;2023-11-21T16:58:03;15.43;;;5.43;;
21769;SDS011;11046;49.558;8.674;2023-11-21T17:01:05;14.73;;;6.67;;
21769;SDS011;11046;49.558;8.674;2023-11-21T17:04:08;15.70;;;9.00;;
21769;SDS011;11046;49.558;8.674;2023-11-21T17:07:09;13.70;;;5.70;;
21769;SDS011;11046;49.558;8.674;2023-11-21T17:10:10;14.87;;;6.97;;
21769;SDS011;11046;49.558;8.674;2023-11-21T17:13:12;27.00;;;16.97;;
21769;SDS011;11046;49.558;8.674;2023-11-21T17:16:13;16.43;;;7.63;;
21769;SDS011;11046;49.558;8.674;2023-11-21T17:19:13;11.03;;;5.63;;
21769;SDS011;11046;49.558;8.674;2023-11-21T17:22:14;13.03;;;5.57;;
21769;SDS011;11046;49.558;8.674;2023-11-21T17:25:15;11.13;;;5.20;;
21769;SDS011;11046;49.558;8.674;2023-11-21T17:28:15;9.70;;;5.30;;
21769;SDS011;11046;49.558;8.674;2023-11-21T17:31:17;9.80;;;5.43;;
21769;SDS011;11046;49.558;8.674;2023-11-21T17:34:18;10.83;;;6.90;;
21769;SDS011;11046;49.558;8.674;2023-11-21T17:37:19;15.03;;;7.80;;
21769;SDS011;11046;49.558;8.674;2023-11-21T17:40:20;12.73;;;6.90;;
21769;SDS011;11046;49.558;8.674;2023-11-21T17:43:21;14.50;;;9.00;;
21769;SDS011;11046;49.558;8.674;2023-11-21T17:46:22;11.20;;;6.03;;
21769;SDS011;11046;49.558;8.674;2023-11-21T17:49:22;8.33;;;4.73;;
21769;SDS011;11046;49.558;8.674;2023-11-21T17:52:24;10.30;;;4.40;;
21769;SDS011;11046;49.558;8.674;2023-11-21T17:55:24;9.40;;;3.77;;
21769;SDS011;11046;49.558;8.674;2023-11-21T17:58:26;8.97;;;4.17;;
21769;SDS011;11046;49.558;8.674;2023-11-21T18:01:28;11.50;;;5.10;;
21769;SDS011;11046;49.558;8.674;2023-11-21T18:04:33;13.90;;;5.10;;
21769;SDS011;11046;49.558;8.674;2023-11-21T18:07:35;16.00;;;4.70;;
21769;SDS011;11046;49.558;8.674;2023-11-21T18:10:37;11.43;;;5.27;;
21769;SDS011;11046;49.558;8.674;2023-11-21T18:13:38;13.33;;;6.33;;
21769;SDS011;11046;49.558;8.674;2023-11-21T18:16:39;16.63;;;8.20;;
21769;SDS011;11046;49.558;8.674;2023-11-21T18:19:42;18.23;;;10.77;;
21769;SDS011;11046;49.558;8.674;2023-11-21T18:22:43;28.63;;;14.60;;
21769;SDS011;11046;49.558;8.674;2023-11-21T18:25:44;24.53;;;15.33;;
21769;SDS011;11046;49.558;8.674;2023-11-21T18:28:45;19.33;;;11.53;;